sensor_id;sensor_type;location;lat;lon;timestamp;temperature;humidity
8939;DHT22;4504;48.810;9.172;2022-08-30T00:00:12;21.90;94.80
8939;DHT22;4504;48.810;9.172;2022-08-30T00:02:57;21.80;94.60
8939;DHT22;4504;48.810;9.172;2022-08-30T00:05:25;21.70;95.00
8939;DHT22;4504;48.810;9.172;2022-08-30T00:07:52;21.70;95.30
8939;DHT22;4504;48.810;9.172;2022-08-30T00:10:19;21.60;95.00
8939;DHT22;4504;48.810;9.172;2022-08-30T00:12:46;21.60;95.20
8939;DHT22;4504;48.810;9.172;2022-08-30T00:15:16;21.60;95.60
8939;DHT22;4504;48.810;9.172;2022-08-30T00:17:44;21.60;95.90
8939;DHT22;4504;48.810;9.172;2022-08-30T00:20:13;21.60;95.80
8939;DHT22;4504;48.810;9.172;2022-08-30T00:22:41;21.60;95.90
8939;DHT22;4504;48.810;9.172;2022-08-30T00:25:08;21.60;96.10
8939;DHT22;4504;48.810;9.172;2022-08-30T00:27:35;21.50;96.00
8939;DHT22;4504;48.810;9.172;2022-08-30T00:30:03;21.50;95.70
8939;DHT22;4504;48.810;9.172;2022-08-30T00:32:31;21.50;95.20
8939;DHT22;4504;48.810;9.172;2022-08-30T00:34:58;21.50;95.50
8939;DHT22;4504;48.810;9.172;2022-08-30T00:37:25;21.40;96.00
8939;DHT22;4504;48.810;9.172;2022-08-30T00:39:52;21.40;95.90
8939;DHT22;4504;48.810;9.172;2022-08-30T00:42:20;21.40;95.50
8939;DHT22;4504;48.810;9.172;2022-08-30T00:44:48;21.30;95.90
8939;DHT22;4504;48.810;9.172;2022-08-30T00:47:15;21.30;95.80
8939;DHT22;4504;48.810;9.172;2022-08-30T00:49:47;21.30;95.60
8939;DHT22;4504;48.810;9.172;2022-08-30T00:52:16;21.20;95.80
8939;DHT22;4504;48.810;9.172;2022-08-30T00:54:45;21.20;96.00
8939;DHT22;4504;48.810;9.172;2022-08-30T00:57:13;21.20;96.20
8939;DHT22;4504;48.810;9.172;2022-08-30T00:59:42;21.10;96.30
8939;DHT22;4504;48.810;9.172;2022-08-30T01:02:11;21.10;96.40
8939;DHT22;4504;48.810;9.172;2022-08-30T01:04:41;21.10;96.50
8939;DHT22;4504;48.810;9.172;2022-08-30T01:07:10;21.00;97.30
8939;DHT22;4504;48.810;9.172;2022-08-30T01:09:37;21.00;97.70
8939;DHT22;4504;48.810;9.172;2022-08-30T01:12:05;21.00;98.00
8939;DHT22;4504;48.810;9.172;2022-08-30T01:14:32;21.00;98.10
8939;DHT22;4504;48.810;9.172;2022-08-30T01:16:59;21.00;98.20
8939;DHT22;4504;48.810;9.172;2022-08-30T01:19:32;21.00;98.30
8939;DHT22;4504;48.810;9.172;2022-08-30T01:22:04;21.00;98.40
8939;DHT22;4504;48.810;9.172;2022-08-30T01:24:36;20.90;98.40
8939;DHT22;4504;48.810;9.172;2022-08-30T01:27:03;20.90;98.40
8939;DHT22;4504;48.810;9.172;2022-08-30T01:29:30;20.80;98.40
8939;DHT22;4504;48.810;9.172;2022-08-30T01:31:57;20.80;98.50
8939;DHT22;4504;48.810;9.172;2022-08-30T01:34:24;20.70;98.40
8939;DHT22;4504;48.810;9.172;2022-08-30T01:36:51;20.70;98.40
8939;DHT22;4504;48.810;9.172;2022-08-30T01:39:18;20.70;98.70
8939;DHT22;4504;48.810;9.172;2022-08-30T01:41:47;20.70;98.70
8939;DHT22;4504;48.810;9.172;2022-08-30T01:44:15;20.60;98.70
8939;DHT22;4504;48.810;9.172;2022-08-30T01:46:44;20.70;99.30
8939;DHT22;4504;48.810;9.172;2022-08-30T01:49:13;20.60;99.40
8939;DHT22;4504;48.810;9.172;2022-08-30T01:51:41;20.60;99.60
8939;DHT22;4504;48.810;9.172;2022-08-30T01:54:09;20.70;99.80
8939;DHT22;4504;48.810;9.172;2022-08-30T01:56:36;20.70;99.80
8939;DHT22;4504;48.810;9.172;2022-08-30T01:59:05;20.70;99.90
8939;DHT22;4504;48.810;9.172;2022-08-30T02:01:34;20.60;99.90
8939;DHT22;4504;48.810;9.172;2022-08-30T02:04:02;20.60;99.90
8939;DHT22;4504;48.810;9.172;2022-08-30T02:06:29;20.60;99.90
8939;DHT22;4504;48.810;9.172;2022-08-30T02:08:56;20.60;99.80
8939;DHT22;4504;48.810;9.172;2022-08-30T02:11:23;20.60;99.90
8939;DHT22;4504;48.810;9.172;2022-08-30T02:13:50;20.50;99.80
8939;DHT22;4504;48.810;9.172;2022-08-30T02:16:20;20.50;99.60
8939;DHT22;4504;48.810;9.172;2022-08-30T02:18:49;20.40;99.60
8939;DHT22;4504;48.810;9.172;2022-08-30T02:21:16;20.40;99.90
8939;DHT22;4504;48.810;9.172;2022-08-30T02:23:43;20.40;99.90
8939;DHT22;4504;48.810;9.172;2022-08-30T02:26:11;20.30;99.90
8939;DHT22;4504;48.810;9.172;2022-08-30T02:28:38;20.30;99.90
8939;DHT22;4504;48.810;9.172;2022-08-30T02:31:06;20.30;99.90
8939;DHT22;4504;48.810;9.172;2022-08-30T02:33:34;20.20;99.90
8939;DHT22;4504;48.810;9.172;2022-08-30T02:36:01;20.20;99.90
8939;DHT22;4504;48.810;9.172;2022-08-30T02:38:28;20.20;99.90
8939;DHT22;4504;48.810;9.172;2022-08-30T02:40:55;20.10;99.90
8939;DHT22;4504;48.810;9.172;2022-08-30T02:43:22;20.10;99.90
8939;DHT22;4504;48.810;9.172;2022-08-30T02:45:49;20.10;99.90
8939;DHT22;4504;48.810;9.172;2022-08-30T02:48:17;20.10;99.90
8939;DHT22;4504;48.810;9.172;2022-08-30T02:50:48;20.10;99.90
8939;DHT22;4504;48.810;9.172;2022-08-30T02:53:15;20.10;99.90
8939;DHT22;4504;48.810;9.172;2022-08-30T02:55:44;20.10;99.90
8939;DHT22;4504;48.810;9.172;2022-08-30T02:58:11;20.10;99.90
8939;DHT22;4504;48.810;9.172;2022-08-30T03:00:38;20.10;99.90
8939;DHT22;4504;48.810;9.172;2022-08-30T03:03:06;20.00;99.90
8939;DHT22;4504;48.810;9.172;2022-08-30T03:05:33;20.00;99.90
8939;DHT22;4504;48.810;9.172;2022-08-30T03:08:02;20.00;99.90
8939;DHT22;4504;48.810;9.172;2022-08-30T03:10:29;20.00;99.90
8939;DHT22;4504;48.810;9.172;2022-08-30T03:12:57;20.00;99.90
8939;DHT22;4504;48.810;9.172;2022-08-30T03:15:24;19.90;99.90
8939;DHT22;4504;48.810;9.172;2022-08-30T03:17:51;19.80;99.90
8939;DHT22;4504;48.810;9.172;2022-08-30T03:20:19;19.80;99.90
8939;DHT22;4504;48.810;9.172;2022-08-30T03:22:46;19.80;99.90
8939;DHT22;4504;48.810;9.172;2022-08-30T03:25:15;19.80;99.90
8939;DHT22;4504;48.810;9.172;2022-08-30T03:27:42;19.70;99.90
8939;DHT22;4504;48.810;9.172;2022-08-30T03:30:10;19.80;99.90
8939;DHT22;4504;48.810;9.172;2022-08-30T03:32:38;19.70;99.90
8939;DHT22;4504;48.810;9.172;2022-08-30T03:35:05;19.70;99.90
8939;DHT22;4504;48.810;9.172;2022-08-30T03:37:32;19.70;99.90
8939;DHT22;4504;48.810;9.172;2022-08-30T03:39:59;19.70;99.90
8939;DHT22;4504;48.810;9.172;2022-08-30T03:42:28;19.70;99.90
8939;DHT22;4504;48.810;9.172;2022-08-30T03:44:55;19.60;99.90
8939;DHT22;4504;48.810;9.172;2022-08-30T03:47:22;19.70;99.90
8939;DHT22;4504;48.810;9.172;2022-08-30T03:49:49;19.70;99.90
8939;DHT22;4504;48.810;9.172;2022-08-30T03:52:16;19.70;99.90
8939;DHT22;4504;48.810;9.172;2022-08-30T03:54:43;19.60;99.90
8939;DHT22;4504;48.810;9.172;2022-08-30T03:57:10;19.60;99.90
8939;DHT22;4504;48.810;9.172;2022-08-30T03:59:39;19.60;99.90
8939;DHT22;4504;48.810;9.172;2022-08-30T04:02:06;19.60;99.90
8939;DHT22;4504;48.810;9.172;2022-08-30T04:04:32;19.60;99.90
8939;DHT22;4504;48.810;9.172;2022-08-30T04:06:59;19.50;99.90
8939;DHT22;4504;48.810;9.172;2022-08-30T04:09:26;19.50;99.90
8939;DHT22;4504;48.810;9.172;2022-08-30T04:11:53;19.50;99.90
8939;DHT22;4504;48.810;9.172;2022-08-30T04:14:20;19.50;99.90
8939;DHT22;4504;48.810;9.172;2022-08-30T04:16:49;19.50;99.90
8939;DHT22;4504;48.810;9.172;2022-08-30T04:19:16;19.50;99.90
8939;DHT22;4504;48.810;9.172;2022-08-30T04:21:43;19.50;99.90
8939;DHT22;4504;48.810;9.172;2022-08-30T04:24:10;19.50;99.90
8939;DHT22;4504;48.810;9.172;2022-08-30T04:26:37;19.50;99.90
8939;DHT22;4504;48.810;9.172;2022-08-30T04:29:05;19.40;99.90
8939;DHT22;4504;48.810;9.172;2022-08-30T04:31:32;19.40;99.90
8939;DHT22;4504;48.810;9.172;2022-08-30T04:34:00;19.40;99.90
8939;DHT22;4504;48.810;9.172;2022-08-30T04:36:27;19.40;99.90
8939;DHT22;4504;48.810;9.172;2022-08-30T04:38:54;19.30;99.90
8939;DHT22;4504;48.810;9.172;2022-08-30T04:41:21;19.20;99.90
8939;DHT22;4504;48.810;9.172;2022-08-30T04:43:49;19.20;99.90
8939;DHT22;4504;48.810;9.172;2022-08-30T04:46:17;19.20;99.90
8939;DHT22;4504;48.810;9.172;2022-08-30T04:48:45;19.20;99.90
8939;DHT22;4504;48.810;9.172;2022-08-30T04:51:15;19.20;99.90
8939;DHT22;4504;48.810;9.172;2022-08-30T04:53:42;19.20;99.90
8939;DHT22;4504;48.810;9.172;2022-08-30T04:56:12;19.20;99.90
8939;DHT22;4504;48.810;9.172;2022-08-30T04:58:41;19.20;99.90
8939;DHT22;4504;48.810;9.172;2022-08-30T05:01:12;19.20;99.90
8939;DHT22;4504;48.810;9.172;2022-08-30T05:03:39;19.10;99.90
8939;DHT22;4504;48.810;9.172;2022-08-30T05:06:06;19.10;99.90
8939;DHT22;4504;48.810;9.172;2022-08-30T05:08:35;19.10;99.90
8939;DHT22;4504;48.810;9.172;2022-08-30T05:11:03;19.10;99.90
8939;DHT22;4504;48.810;9.172;2022-08-30T05:13:31;19.10;99.90
8939;DHT22;4504;48.810;9.172;2022-08-30T05:15:58;19.20;99.90
8939;DHT22;4504;48.810;9.172;2022-08-30T05:18:26;19.20;99.90
8939;DHT22;4504;48.810;9.172;2022-08-30T05:21:03;19.20;99.90
8939;DHT22;4504;48.810;9.172;2022-08-30T05:23:30;19.20;99.90
8939;DHT22;4504;48.810;9.172;2022-08-30T05:25:58;19.20;99.90
8939;DHT22;4504;48.810;9.172;2022-08-30T05:28:29;19.30;99.90
8939;DHT22;4504;48.810;9.172;2022-08-30T05:30:56;19.30;99.90
8939;DHT22;4504;48.810;9.172;2022-08-30T05:33:23;19.30;99.90
8939;DHT22;4504;48.810;9.172;2022-08-30T05:35:50;19.30;99.90
8939;DHT22;4504;48.810;9.172;2022-08-30T05:38:17;19.30;99.90
8939;DHT22;4504;48.810;9.172;2022-08-30T05:40:44;19.40;99.90
8939;DHT22;4504;48.810;9.172;2022-08-30T05:43:12;19.40;99.90
8939;DHT22;4504;48.810;9.172;2022-08-30T05:45:39;19.40;99.90
8939;DHT22;4504;48.810;9.172;2022-08-30T05:48:06;19.50;99.90
8939;DHT22;4504;48.810;9.172;2022-08-30T05:50:36;19.50;99.90
8939;DHT22;4504;48.810;9.172;2022-08-30T05:53:03;19.50;99.90
8939;DHT22;4504;48.810;9.172;2022-08-30T05:55:30;19.50;99.90
8939;DHT22;4504;48.810;9.172;2022-08-30T05:57:57;19.50;99.90
8939;DHT22;4504;48.810;9.172;2022-08-30T06:00:26;19.50;99.90
8939;DHT22;4504;48.810;9.172;2022-08-30T06:02:54;19.60;99.90
8939;DHT22;4504;48.810;9.172;2022-08-30T06:05:21;19.60;99.90
8939;DHT22;4504;48.810;9.172;2022-08-30T06:07:48;19.60;99.90
8939;DHT22;4504;48.810;9.172;2022-08-30T06:10:15;19.70;99.90
8939;DHT22;4504;48.810;9.172;2022-08-30T06:12:42;19.70;99.90
8939;DHT22;4504;48.810;9.172;2022-08-30T06:15:10;19.70;99.90
8939;DHT22;4504;48.810;9.172;2022-08-30T06:17:39;19.70;99.90
8939;DHT22;4504;48.810;9.172;2022-08-30T06:20:07;19.70;99.90
8939;DHT22;4504;48.810;9.172;2022-08-30T06:22:34;19.80;99.90
8939;DHT22;4504;48.810;9.172;2022-08-30T06:25:04;19.80;99.90
8939;DHT22;4504;48.810;9.172;2022-08-30T06:27:31;19.80;99.90
8939;DHT22;4504;48.810;9.172;2022-08-30T06:29:58;19.90;99.90
8939;DHT22;4504;48.810;9.172;2022-08-30T06:32:25;19.90;99.90
8939;DHT22;4504;48.810;9.172;2022-08-30T06:34:53;20.00;99.90
8939;DHT22;4504;48.810;9.172;2022-08-30T06:37:20;20.00;99.90
8939;DHT22;4504;48.810;9.172;2022-08-30T06:39:47;20.00;99.90
8939;DHT22;4504;48.810;9.172;2022-08-30T06:42:14;20.00;99.90
8939;DHT22;4504;48.810;9.172;2022-08-30T06:44:41;20.10;99.90
8939;DHT22;4504;48.810;9.172;2022-08-30T06:47:10;20.20;99.90
8939;DHT22;4504;48.810;9.172;2022-08-30T06:49:37;20.20;99.90
8939;DHT22;4504;48.810;9.172;2022-08-30T06:52:05;20.30;99.90
8939;DHT22;4504;48.810;9.172;2022-08-30T06:54:32;20.20;99.90
8939;DHT22;4504;48.810;9.172;2022-08-30T06:56:59;20.20;99.90
8939;DHT22;4504;48.810;9.172;2022-08-30T06:59:27;20.30;99.90
8939;DHT22;4504;48.810;9.172;2022-08-30T07:01:54;20.30;99.90
8939;DHT22;4504;48.810;9.172;2022-08-30T07:04:21;20.30;99.90
8939;DHT22;4504;48.810;9.172;2022-08-30T07:06:48;20.40;99.90
8939;DHT22;4504;48.810;9.172;2022-08-30T07:09:17;20.40;99.90
8939;DHT22;4504;48.810;9.172;2022-08-30T07:11:44;20.40;99.90
8939;DHT22;4504;48.810;9.172;2022-08-30T07:14:11;20.40;99.90
8939;DHT22;4504;48.810;9.172;2022-08-30T07:16:38;20.40;99.90
8939;DHT22;4504;48.810;9.172;2022-08-30T07:19:06;20.50;99.90
8939;DHT22;4504;48.810;9.172;2022-08-30T07:21:33;20.50;99.90
8939;DHT22;4504;48.810;9.172;2022-08-30T07:24:03;20.50;99.90
8939;DHT22;4504;48.810;9.172;2022-08-30T07:26:34;20.60;99.90
8939;DHT22;4504;48.810;9.172;2022-08-30T07:29:02;20.60;99.90
8939;DHT22;4504;48.810;9.172;2022-08-30T07:31:29;20.70;99.90
8939;DHT22;4504;48.810;9.172;2022-08-30T07:33:57;20.60;99.90
8939;DHT22;4504;48.810;9.172;2022-08-30T07:36:24;20.70;99.90
8939;DHT22;4504;48.810;9.172;2022-08-30T07:38:51;20.70;99.90
8939;DHT22;4504;48.810;9.172;2022-08-30T07:41:21;20.80;99.90
8939;DHT22;4504;48.810;9.172;2022-08-30T07:43:50;20.80;99.90
8939;DHT22;4504;48.810;9.172;2022-08-30T07:46:18;20.90;99.90
8939;DHT22;4504;48.810;9.172;2022-08-30T07:48:45;20.90;99.90
8939;DHT22;4504;48.810;9.172;2022-08-30T07:51:14;21.00;99.90
8939;DHT22;4504;48.810;9.172;2022-08-30T07:53:42;21.00;99.90
8939;DHT22;4504;48.810;9.172;2022-08-30T07:56:09;21.10;99.90
8939;DHT22;4504;48.810;9.172;2022-08-30T07:58:36;21.10;99.90
8939;DHT22;4504;48.810;9.172;2022-08-30T08:01:08;21.20;99.90
8939;DHT22;4504;48.810;9.172;2022-08-30T08:03:37;21.20;99.90
8939;DHT22;4504;48.810;9.172;2022-08-30T08:06:06;21.20;99.90
8939;DHT22;4504;48.810;9.172;2022-08-30T08:08:33;21.30;99.90
8939;DHT22;4504;48.810;9.172;2022-08-30T08:11:05;21.40;99.90
8939;DHT22;4504;48.810;9.172;2022-08-30T08:13:32;21.40;99.90
8939;DHT22;4504;48.810;9.172;2022-08-30T08:16:00;21.40;99.90
8939;DHT22;4504;48.810;9.172;2022-08-30T08:18:28;21.50;99.90
8939;DHT22;4504;48.810;9.172;2022-08-30T08:20:56;21.50;99.90
8939;DHT22;4504;48.810;9.172;2022-08-30T08:23:23;21.60;99.90
8939;DHT22;4504;48.810;9.172;2022-08-30T08:25:50;21.70;99.90
8939;DHT22;4504;48.810;9.172;2022-08-30T08:28:21;21.70;99.90
8939;DHT22;4504;48.810;9.172;2022-08-30T08:30:50;21.80;99.90
8939;DHT22;4504;48.810;9.172;2022-08-30T08:33:17;21.80;99.90
8939;DHT22;4504;48.810;9.172;2022-08-30T08:35:49;21.80;99.90
8939;DHT22;4504;48.810;9.172;2022-08-30T08:38:16;21.90;99.90
8939;DHT22;4504;48.810;9.172;2022-08-30T08:40:48;21.90;99.90
8939;DHT22;4504;48.810;9.172;2022-08-30T08:43:19;22.00;99.90
8939;DHT22;4504;48.810;9.172;2022-08-30T08:45:55;22.10;99.90
8939;DHT22;4504;48.810;9.172;2022-08-30T08:48:28;22.20;99.90
8939;DHT22;4504;48.810;9.172;2022-08-30T08:50:58;22.20;99.80
8939;DHT22;4504;48.810;9.172;2022-08-30T08:53:58;22.20;99.80
8939;DHT22;4504;48.810;9.172;2022-08-30T08:56:26;22.40;99.80
8939;DHT22;4504;48.810;9.172;2022-08-30T08:58:55;22.40;99.70
8939;DHT22;4504;48.810;9.172;2022-08-30T09:01:24;22.50;99.80
8939;DHT22;4504;48.810;9.172;2022-08-30T09:03:52;22.50;99.10
8939;DHT22;4504;48.810;9.172;2022-08-30T09:06:39;22.60;99.00
8939;DHT22;4504;48.810;9.172;2022-08-30T09:09:08;22.70;98.90
8939;DHT22;4504;48.810;9.172;2022-08-30T09:11:36;22.70;99.00
8939;DHT22;4504;48.810;9.172;2022-08-30T09:14:05;22.80;98.70
8939;DHT22;4504;48.810;9.172;2022-08-30T09:16:49;22.90;98.70
8939;DHT22;4504;48.810;9.172;2022-08-30T09:19:32;23.00;98.60
8939;DHT22;4504;48.810;9.172;2022-08-30T09:22:04;23.00;98.40
8939;DHT22;4504;48.810;9.172;2022-08-30T09:24:40;23.10;98.30
8939;DHT22;4504;48.810;9.172;2022-08-30T09:27:19;23.20;98.30
8939;DHT22;4504;48.810;9.172;2022-08-30T09:29:56;23.20;98.10
8939;DHT22;4504;48.810;9.172;2022-08-30T09:32:36;23.20;98.10
8939;DHT22;4504;48.810;9.172;2022-08-30T09:35:05;23.30;97.70
8939;DHT22;4504;48.810;9.172;2022-08-30T09:37:38;23.40;97.90
8939;DHT22;4504;48.810;9.172;2022-08-30T09:40:12;23.50;97.40
8939;DHT22;4504;48.810;9.172;2022-08-30T09:42:41;23.50;97.30
8939;DHT22;4504;48.810;9.172;2022-08-30T09:45:29;23.60;97.20
8939;DHT22;4504;48.810;9.172;2022-08-30T09:47:56;23.70;97.40
8939;DHT22;4504;48.810;9.172;2022-08-30T09:50:26;23.80;97.00
8939;DHT22;4504;48.810;9.172;2022-08-30T09:53:11;23.80;96.80
8939;DHT22;4504;48.810;9.172;2022-08-30T09:55:52;23.90;96.30
8939;DHT22;4504;48.810;9.172;2022-08-30T09:58:28;24.00;96.00
8939;DHT22;4504;48.810;9.172;2022-08-30T10:01:06;24.10;95.80
8939;DHT22;4504;48.810;9.172;2022-08-30T10:03:37;24.30;95.70
8939;DHT22;4504;48.810;9.172;2022-08-30T10:06:12;24.40;95.60
8939;DHT22;4504;48.810;9.172;2022-08-30T10:08:53;24.60;95.40
8939;DHT22;4504;48.810;9.172;2022-08-30T10:11:27;24.70;95.40
8939;DHT22;4504;48.810;9.172;2022-08-30T10:14:22;24.80;94.90
8939;DHT22;4504;48.810;9.172;2022-08-30T10:16:58;24.90;94.70
8939;DHT22;4504;48.810;9.172;2022-08-30T10:19:39;24.90;94.60
8939;DHT22;4504;48.810;9.172;2022-08-30T10:22:14;24.90;94.30
8939;DHT22;4504;48.810;9.172;2022-08-30T10:24:47;25.00;94.40
8939;DHT22;4504;48.810;9.172;2022-08-30T10:27:18;25.00;94.20
8939;DHT22;4504;48.810;9.172;2022-08-30T10:29:52;25.00;94.00
8939;DHT22;4504;48.810;9.172;2022-08-30T10:32:25;25.10;93.40
8939;DHT22;4504;48.810;9.172;2022-08-30T10:34:56;25.10;93.40
8939;DHT22;4504;48.810;9.172;2022-08-30T10:37:27;25.10;93.20
8939;DHT22;4504;48.810;9.172;2022-08-30T10:40:02;25.10;93.30
8939;DHT22;4504;48.810;9.172;2022-08-30T10:42:50;25.20;93.20
8939;DHT22;4504;48.810;9.172;2022-08-30T10:45:19;25.30;92.90
8939;DHT22;4504;48.810;9.172;2022-08-30T10:47:52;25.30;92.30
8939;DHT22;4504;48.810;9.172;2022-08-30T10:50:24;25.40;92.60
8939;DHT22;4504;48.810;9.172;2022-08-30T10:52:58;25.30;92.10
8939;DHT22;4504;48.810;9.172;2022-08-30T10:55:30;25.30;90.40
8939;DHT22;4504;48.810;9.172;2022-08-30T10:57:59;25.20;89.70
8939;DHT22;4504;48.810;9.172;2022-08-30T11:00:29;25.50;91.20
8939;DHT22;4504;48.810;9.172;2022-08-30T11:03:16;25.40;89.30
8939;DHT22;4504;48.810;9.172;2022-08-30T11:06:02;25.50;88.90
8939;DHT22;4504;48.810;9.172;2022-08-30T11:08:59;25.50;88.00
8939;DHT22;4504;48.810;9.172;2022-08-30T11:11:38;25.60;86.30
8939;DHT22;4504;48.810;9.172;2022-08-30T11:14:09;25.80;87.40
8939;DHT22;4504;48.810;9.172;2022-08-30T11:16:40;25.80;85.00
8939;DHT22;4504;48.810;9.172;2022-08-30T11:19:15;25.80;86.50
8939;DHT22;4504;48.810;9.172;2022-08-30T11:21:44;25.90;83.60
8939;DHT22;4504;48.810;9.172;2022-08-30T11:24:12;25.70;83.40
8939;DHT22;4504;48.810;9.172;2022-08-30T11:27:09;25.90;84.80
8939;DHT22;4504;48.810;9.172;2022-08-30T11:29:56;26.00;86.10
8939;DHT22;4504;48.810;9.172;2022-08-30T11:35:39;26.10;85.60
8939;DHT22;4504;48.810;9.172;2022-08-30T11:38:19;26.10;82.30
8939;DHT22;4504;48.810;9.172;2022-08-30T11:41:06;26.10;83.30
8939;DHT22;4504;48.810;9.172;2022-08-30T11:43:51;26.10;82.50
8939;DHT22;4504;48.810;9.172;2022-08-30T11:46:35;26.10;81.70
8939;DHT22;4504;48.810;9.172;2022-08-30T11:49:28;26.20;81.40
8939;DHT22;4504;48.810;9.172;2022-08-30T11:52:29;26.30;83.20
8939;DHT22;4504;48.810;9.172;2022-08-30T11:55:30;26.30;82.00
8939;DHT22;4504;48.810;9.172;2022-08-30T11:58:10;26.30;83.80
8939;DHT22;4504;48.810;9.172;2022-08-30T12:00:43;26.30;83.80
8939;DHT22;4504;48.810;9.172;2022-08-30T12:03:28;26.20;82.90
8939;DHT22;4504;48.810;9.172;2022-08-30T12:05:58;26.30;84.90
8939;DHT22;4504;48.810;9.172;2022-08-30T12:08:44;26.30;85.30
8939;DHT22;4504;48.810;9.172;2022-08-30T12:17:46;26.30;83.50
8939;DHT22;4504;48.810;9.172;2022-08-30T12:20:39;26.30;83.20
8939;DHT22;4504;48.810;9.172;2022-08-30T12:23:16;26.40;84.50
8939;DHT22;4504;48.810;9.172;2022-08-30T12:25:44;26.30;83.00
8939;DHT22;4504;48.810;9.172;2022-08-30T12:28:19;26.40;83.90
8939;DHT22;4504;48.810;9.172;2022-08-30T12:30:47;26.40;84.00
8939;DHT22;4504;48.810;9.172;2022-08-30T12:33:25;26.40;83.40
8939;DHT22;4504;48.810;9.172;2022-08-30T12:35:52;26.50;82.70
8939;DHT22;4504;48.810;9.172;2022-08-30T12:38:22;26.50;82.40
8939;DHT22;4504;48.810;9.172;2022-08-30T12:40:52;26.60;82.90
8939;DHT22;4504;48.810;9.172;2022-08-30T12:43:31;26.60;83.20
8939;DHT22;4504;48.810;9.172;2022-08-30T12:46:01;26.60;81.20
8939;DHT22;4504;48.810;9.172;2022-08-30T12:48:35;26.60;79.80
8939;DHT22;4504;48.810;9.172;2022-08-30T12:51:03;26.70;80.30
8939;DHT22;4504;48.810;9.172;2022-08-30T12:53:33;26.90;81.00
8939;DHT22;4504;48.810;9.172;2022-08-30T12:56:05;27.00;81.60
8939;DHT22;4504;48.810;9.172;2022-08-30T12:58:35;27.10;80.60
8939;DHT22;4504;48.810;9.172;2022-08-30T13:01:16;27.20;80.80
8939;DHT22;4504;48.810;9.172;2022-08-30T13:03:55;27.20;79.90
8939;DHT22;4504;48.810;9.172;2022-08-30T13:06:40;27.30;79.00
8939;DHT22;4504;48.810;9.172;2022-08-30T13:09:10;27.30;78.70
8939;DHT22;4504;48.810;9.172;2022-08-30T13:11:48;27.20;77.90
8939;DHT22;4504;48.810;9.172;2022-08-30T13:14:30;27.10;75.10
8939;DHT22;4504;48.810;9.172;2022-08-30T13:17:19;27.00;76.50
8939;DHT22;4504;48.810;9.172;2022-08-30T13:19:58;27.20;77.10
8939;DHT22;4504;48.810;9.172;2022-08-30T13:22:28;27.40;77.90
8939;DHT22;4504;48.810;9.172;2022-08-30T13:24:57;27.40;76.30
8939;DHT22;4504;48.810;9.172;2022-08-30T13:27:25;27.60;76.50
8939;DHT22;4504;48.810;9.172;2022-08-30T13:29:53;27.70;76.40
8939;DHT22;4504;48.810;9.172;2022-08-30T13:32:21;27.80;75.60
8939;DHT22;4504;48.810;9.172;2022-08-30T13:34:48;27.90;73.60
8939;DHT22;4504;48.810;9.172;2022-08-30T13:37:22;28.00;72.50
8939;DHT22;4504;48.810;9.172;2022-08-30T13:39:49;28.20;73.20
8939;DHT22;4504;48.810;9.172;2022-08-30T13:42:16;28.30;72.20
8939;DHT22;4504;48.810;9.172;2022-08-30T13:44:43;28.20;68.10
8939;DHT22;4504;48.810;9.172;2022-08-30T13:47:10;28.30;68.30
8939;DHT22;4504;48.810;9.172;2022-08-30T13:49:38;28.20;67.80
8939;DHT22;4504;48.810;9.172;2022-08-30T13:52:08;28.30;66.90
8939;DHT22;4504;48.810;9.172;2022-08-30T13:54:36;28.40;68.20
8939;DHT22;4504;48.810;9.172;2022-08-30T13:57:04;28.50;68.00
8939;DHT22;4504;48.810;9.172;2022-08-30T13:59:31;28.50;67.20
8939;DHT22;4504;48.810;9.172;2022-08-30T14:01:59;28.50;66.00
8939;DHT22;4504;48.810;9.172;2022-08-30T14:04:27;28.60;65.40
8939;DHT22;4504;48.810;9.172;2022-08-30T14:06:54;28.60;64.60
8939;DHT22;4504;48.810;9.172;2022-08-30T14:09:21;28.60;63.30
8939;DHT22;4504;48.810;9.172;2022-08-30T14:11:49;28.70;63.50
8939;DHT22;4504;48.810;9.172;2022-08-30T14:14:16;28.80;64.10
8939;DHT22;4504;48.810;9.172;2022-08-30T14:16:44;28.80;64.40
8939;DHT22;4504;48.810;9.172;2022-08-30T14:19:12;28.90;65.10
8939;DHT22;4504;48.810;9.172;2022-08-30T14:21:40;28.80;65.00
8939;DHT22;4504;48.810;9.172;2022-08-30T14:24:07;28.70;65.40
8939;DHT22;4504;48.810;9.172;2022-08-30T14:26:37;28.70;63.60
8939;DHT22;4504;48.810;9.172;2022-08-30T14:29:09;28.60;64.90
8939;DHT22;4504;48.810;9.172;2022-08-30T14:31:36;28.70;65.80
8939;DHT22;4504;48.810;9.172;2022-08-30T14:34:05;28.60;62.30
8939;DHT22;4504;48.810;9.172;2022-08-30T14:36:33;28.50;62.90
8939;DHT22;4504;48.810;9.172;2022-08-30T14:39:02;28.40;61.90
8939;DHT22;4504;48.810;9.172;2022-08-30T14:41:29;28.30;62.80
8939;DHT22;4504;48.810;9.172;2022-08-30T14:43:56;28.50;64.20
8939;DHT22;4504;48.810;9.172;2022-08-30T14:46:25;28.70;64.70
8939;DHT22;4504;48.810;9.172;2022-08-30T14:48:52;28.90;65.10
8939;DHT22;4504;48.810;9.172;2022-08-30T14:51:21;28.90;65.50
8939;DHT22;4504;48.810;9.172;2022-08-30T14:53:50;28.70;63.80
8939;DHT22;4504;48.810;9.172;2022-08-30T14:56:19;28.80;64.70
8939;DHT22;4504;48.810;9.172;2022-08-30T14:58:47;29.00;65.40
8939;DHT22;4504;48.810;9.172;2022-08-30T15:01:14;29.20;64.80
8939;DHT22;4504;48.810;9.172;2022-08-30T15:03:42;29.10;64.40
8939;DHT22;4504;48.810;9.172;2022-08-30T15:06:10;29.00;63.00
8939;DHT22;4504;48.810;9.172;2022-08-30T15:08:37;29.00;63.60
8939;DHT22;4504;48.810;9.172;2022-08-30T15:11:07;28.90;63.80
8939;DHT22;4504;48.810;9.172;2022-08-30T15:13:34;28.90;64.00
8939;DHT22;4504;48.810;9.172;2022-08-30T15:16:01;28.90;63.30
8939;DHT22;4504;48.810;9.172;2022-08-30T15:18:28;28.90;63.90
8939;DHT22;4504;48.810;9.172;2022-08-30T15:20:57;28.60;62.40
8939;DHT22;4504;48.810;9.172;2022-08-30T15:23:24;28.60;63.20
8939;DHT22;4504;48.810;9.172;2022-08-30T15:25:51;28.90;63.40
8939;DHT22;4504;48.810;9.172;2022-08-30T15:28:18;28.80;62.30
8939;DHT22;4504;48.810;9.172;2022-08-30T15:30:45;29.00;62.90
8939;DHT22;4504;48.810;9.172;2022-08-30T15:33:12;29.20;63.90
8939;DHT22;4504;48.810;9.172;2022-08-30T15:35:39;29.40;63.70
8939;DHT22;4504;48.810;9.172;2022-08-30T15:38:08;29.60;62.80
8939;DHT22;4504;48.810;9.172;2022-08-30T15:40:35;29.80;61.20
8939;DHT22;4504;48.810;9.172;2022-08-30T15:43:03;29.90;61.50
8939;DHT22;4504;48.810;9.172;2022-08-30T15:45:30;29.80;59.10
8939;DHT22;4504;48.810;9.172;2022-08-30T15:47:59;29.40;59.30
8939;DHT22;4504;48.810;9.172;2022-08-30T15:50:26;29.20;60.00
8939;DHT22;4504;48.810;9.172;2022-08-30T15:52:53;29.00;60.80
8939;DHT22;4504;48.810;9.172;2022-08-30T15:55:22;29.10;61.40
8939;DHT22;4504;48.810;9.172;2022-08-30T15:57:49;29.20;60.70
8939;DHT22;4504;48.810;9.172;2022-08-30T16:00:16;29.50;61.50
8939;DHT22;4504;48.810;9.172;2022-08-30T16:02:43;29.50;61.80
8939;DHT22;4504;48.810;9.172;2022-08-30T16:05:13;29.60;60.90
8939;DHT22;4504;48.810;9.172;2022-08-30T16:07:40;29.70;61.40
8939;DHT22;4504;48.810;9.172;2022-08-30T16:10:10;29.70;61.10
8939;DHT22;4504;48.810;9.172;2022-08-30T16:12:38;29.70;59.60
8939;DHT22;4504;48.810;9.172;2022-08-30T16:15:06;29.70;59.40
8939;DHT22;4504;48.810;9.172;2022-08-30T16:17:33;29.70;60.00
8939;DHT22;4504;48.810;9.172;2022-08-30T16:20:00;29.70;60.40
8939;DHT22;4504;48.810;9.172;2022-08-30T16:22:27;29.70;59.30
8939;DHT22;4504;48.810;9.172;2022-08-30T16:24:55;29.70;59.20
8939;DHT22;4504;48.810;9.172;2022-08-30T16:27:22;29.70;59.50
8939;DHT22;4504;48.810;9.172;2022-08-30T16:29:50;29.70;60.30